Bogota, Tennessee
Current Conditions -  °F | °C
As of 9:35 AM on Wednesday 26 Nov 2014 (Local Time) from KDYR Reporting Station
Clear Clear  
Wind Chill: 36°   Ceiling: Unl
Heat Index: 41°   Visibility: 10mi
Dew Point: 25°   Wind: 8mph
Humidity: 53%   Direction: 140°SE
Pressure: 30.13"   Gusts: NA
Location:  36.16°N, 89.44°W
Report Text: KDYR 261535Z 14007KT 10SM CLR 05/M04 A3013 RMK AO1
Loading
Personal Weather Stations






























Interactive Weather Map New forecast layout! Learn more

10-Day Weather Forecast

Advertisements
Track Severe Weather on mobile